createdAt,value
2018-09-18T00:00:49.883Z,14.20
2018-09-18T00:03:19.860Z,14.20
2018-09-18T00:05:49.016Z,14.20
2018-09-18T00:08:18.191Z,14.10
2018-09-18T00:10:47.299Z,14.10
2018-09-18T00:13:16.291Z,14.10
2018-09-18T00:15:45.319Z,14.10
2018-09-18T00:18:14.789Z,14.00
2018-09-18T00:20:43.786Z,14.00
2018-09-18T00:23:12.744Z,14.00
2018-09-18T00:25:41.829Z,14.00
2018-09-18T00:28:11.974Z,14.00
2018-09-18T00:30:41.091Z,14.00
2018-09-18T00:33:10.090Z,13.90
2018-09-18T00:35:39.215Z,13.90
2018-09-18T00:38:10.185Z,13.80
2018-09-18T00:40:39.365Z,13.80
2018-09-18T00:43:08.482Z,13.70
2018-09-18T00:45:38.582Z,13.70
2018-09-18T00:48:07.559Z,13.70
2018-09-18T00:50:36.626Z,13.60
2018-09-18T00:53:05.646Z,13.60
2018-09-18T00:55:34.540Z,13.60
2018-09-18T00:58:03.607Z,13.50
2018-09-18T01:00:32.778Z,13.50
2018-09-18T01:03:02.709Z,13.40
2018-09-18T01:05:31.634Z,13.50
2018-09-18T01:08:00.726Z,13.40
2018-09-18T01:10:29.849Z,13.40
2018-09-18T01:12:58.870Z,13.40
2018-09-18T01:15:27.982Z,13.40
2018-09-18T01:17:58.127Z,13.40
2018-09-18T01:20:27.982Z,13.40
2018-09-18T01:22:56.935Z,13.30
2018-09-18T01:25:26.050Z,13.30
2018-09-18T01:27:55.126Z,13.30
2018-09-18T01:30:24.442Z,13.30
2018-09-18T01:32:54.098Z,13.30
2018-09-18T01:35:23.095Z,13.30
2018-09-18T01:37:52.288Z,13.20
2018-09-18T01:40:21.556Z,13.30
2018-09-18T01:42:50.779Z,13.20
2018-09-18T01:45:19.889Z,13.20
2018-09-18T01:47:48.819Z,13.10
2018-09-18T01:50:17.870Z,13.10
2018-09-18T01:52:46.991Z,13.10
2018-09-18T01:55:15.993Z,13.10
2018-09-18T01:57:45.322Z,13.10
2018-09-18T02:00:14.486Z,13.10
2018-09-18T02:02:43.375Z,13.10
2018-09-18T02:05:12.474Z,13.10
2018-09-18T02:07:42.984Z,13.00
2018-09-18T02:10:12.052Z,13.00
2018-09-18T02:12:40.993Z,13.00
2018-09-18T02:15:10.257Z,13.10
2018-09-18T02:17:39.335Z,13.00
2018-09-18T02:20:08.516Z,13.10
2018-09-18T02:22:38.222Z,13.10
2018-09-18T02:25:08.359Z,13.00
2018-09-18T02:27:38.739Z,13.00
2018-09-18T02:30:07.899Z,13.10
2018-09-18T02:32:37.016Z,13.00
2018-09-18T02:35:06.129Z,13.00
2018-09-18T02:37:35.193Z,13.00
2018-09-18T02:40:04.334Z,13.00
2018-09-18T02:42:33.296Z,13.00
2018-09-18T02:45:02.382Z,12.90
2018-09-18T02:47:31.354Z,12.90
2018-09-18T02:50:00.745Z,12.90
2018-09-18T02:52:30.085Z,13.00
2018-09-18T02:54:59.246Z,12.90
2018-09-18T02:57:28.281Z,12.90
2018-09-18T02:59:57.407Z,12.90
2018-09-18T03:02:26.544Z,12.90
2018-09-18T03:04:55.637Z,12.90
2018-09-18T03:07:24.623Z,12.90
2018-09-18T03:09:53.680Z,12.80
2018-09-18T03:12:22.744Z,12.90
2018-09-18T03:14:51.767Z,12.80
2018-09-18T03:17:20.838Z,12.80
2018-09-18T03:19:50.447Z,12.80
2018-09-18T03:22:20.267Z,12.80
2018-09-18T03:24:49.370Z,12.80
2018-09-18T03:27:19.127Z,12.80
2018-09-18T03:29:48.028Z,12.90
2018-09-18T03:32:17.169Z,12.90
2018-09-18T03:34:46.098Z,13.00
2018-09-18T03:37:15.388Z,13.00
2018-09-18T03:39:44.437Z,13.00
2018-09-18T03:42:13.522Z,13.00
2018-09-18T03:44:42.695Z,13.00
2018-09-18T03:47:11.798Z,13.10
2018-09-18T03:49:40.806Z,13.10
2018-09-18T03:52:09.932Z,13.10
2018-09-18T03:54:39.087Z,13.10
2018-09-18T03:57:08.260Z,13.10
2018-09-18T03:59:37.355Z,13.10
2018-09-18T04:02:07.728Z,13.10
2018-09-18T04:04:36.825Z,13.00
2018-09-18T04:07:05.891Z,13.10
2018-09-18T04:09:34.889Z,13.10
2018-09-18T04:12:03.892Z,13.10
2018-09-18T04:14:32.729Z,13.10
2018-09-18T04:17:01.718Z,13.10
2018-09-18T04:19:30.763Z,13.10
2018-09-18T04:21:59.797Z,13.10
2018-09-18T04:24:28.843Z,13.00
2018-09-18T04:26:57.988Z,13.00
2018-09-18T04:29:27.314Z,13.00
2018-09-18T04:31:56.350Z,13.00
2018-09-18T04:34:25.375Z,13.00
2018-09-18T04:36:54.473Z,13.00
2018-09-18T04:39:23.579Z,12.90
2018-09-18T04:41:52.777Z,12.90
2018-09-18T04:44:21.885Z,12.90
2018-09-18T04:46:50.925Z,12.80
2018-09-18T04:49:20.013Z,12.90
2018-09-18T04:51:49.018Z,12.90
2018-09-18T04:54:17.953Z,12.90
2018-09-18T04:56:47.047Z,12.80
2018-09-18T04:59:16.032Z,12.80
2018-09-18T05:01:45.088Z,12.80
2018-09-18T05:04:14.205Z,12.90
2018-09-18T05:06:43.380Z,12.90
2018-09-18T05:09:12.543Z,12.90
2018-09-18T05:11:41.620Z,12.90
2018-09-18T05:27:28.198Z,13.00
2018-09-18T05:29:57.448Z,13.20
2018-09-18T05:32:26.722Z,13.20
2018-09-18T05:34:55.888Z,13.30
2018-09-18T05:37:25.082Z,13.30
2018-09-18T05:39:53.981Z,13.30
2018-09-18T05:42:23.054Z,13.30
2018-09-18T05:44:52.261Z,13.40
2018-09-18T05:47:22.302Z,13.50
2018-09-18T05:49:51.994Z,13.50
2018-09-18T05:52:21.037Z,13.50
2018-09-18T05:54:50.219Z,13.60
2018-09-18T05:57:19.179Z,13.60
2018-09-18T05:59:50.264Z,13.60
2018-09-18T06:02:19.607Z,13.60
2018-09-18T06:04:48.800Z,13.70
2018-09-18T06:07:18.086Z,13.70
2018-09-18T06:09:47.303Z,13.80
2018-09-18T06:12:16.502Z,13.80
2018-09-18T06:14:45.637Z,13.80
2018-09-18T06:17:14.675Z,13.90
2018-09-18T06:19:44.042Z,13.90
2018-09-18T06:22:13.208Z,14.00
2018-09-18T06:24:42.363Z,14.10
2018-09-18T06:27:11.470Z,14.10
2018-09-18T06:29:41.630Z,14.20
2018-09-18T06:32:10.637Z,14.30
2018-09-18T06:34:39.658Z,14.30
2018-09-18T06:37:09.173Z,14.40
2018-09-18T06:39:38.280Z,14.40
2018-09-18T06:42:07.467Z,14.50
2018-09-18T06:44:36.473Z,14.50
2018-09-18T06:47:05.689Z,14.60
2018-09-18T06:49:34.787Z,14.70
2018-09-18T06:52:03.916Z,14.80
2018-09-18T06:54:33.091Z,14.90
2018-09-18T06:57:02.162Z,15.00
2018-09-18T06:59:31.356Z,15.00
2018-09-18T07:02:00.456Z,15.10
2018-09-18T07:04:30.467Z,15.10
2018-09-18T07:06:59.474Z,15.20
2018-09-18T07:09:28.625Z,15.30
2018-09-18T07:11:57.707Z,15.40
2018-09-18T07:14:26.843Z,15.50
2018-09-18T07:16:55.951Z,15.50
2018-09-18T07:19:25.043Z,15.60
2018-09-18T07:21:54.105Z,15.60
2018-09-18T07:24:23.986Z,15.70
2018-09-18T07:26:53.054Z,15.80
2018-09-18T07:29:22.194Z,15.90
2018-09-18T07:31:51.595Z,15.90
2018-09-18T07:34:20.815Z,16.00
2018-09-18T07:36:49.808Z,16.00
2018-09-18T07:39:19.052Z,16.10
2018-09-18T07:41:48.058Z,16.10
2018-09-18T07:44:17.060Z,16.20
2018-09-18T07:46:46.182Z,16.30
2018-09-18T07:49:15.262Z,16.40
2018-09-18T07:51:44.402Z,16.50
2018-09-18T07:54:13.474Z,16.60
2018-09-18T07:56:42.502Z,16.70
2018-09-18T07:59:11.620Z,16.80
2018-09-18T08:01:40.620Z,16.90
2018-09-18T08:04:09.687Z,17.00
2018-09-18T08:06:38.708Z,17.10
2018-09-18T08:09:09.746Z,17.20
2018-09-18T08:11:39.013Z,17.40
2018-09-18T08:14:08.071Z,17.50
2018-09-18T08:16:37.208Z,17.60
2018-09-18T08:19:06.364Z,17.70
2018-09-18T08:21:35.311Z,17.80
2018-09-18T08:24:04.600Z,17.90
2018-09-18T08:26:36.196Z,18.00
2018-09-18T08:29:05.218Z,18.10
2018-09-18T08:31:35.541Z,18.20
2018-09-18T08:34:04.839Z,18.30
2018-09-18T08:36:33.839Z,18.40
2018-09-18T08:39:03.047Z,18.50
2018-09-18T08:41:32.097Z,18.60
2018-09-18T08:44:01.098Z,18.70
2018-09-18T08:46:30.348Z,18.80
2018-09-18T08:48:59.622Z,18.90
2018-09-18T08:51:28.564Z,19.00
2018-09-18T08:53:57.691Z,19.10
2018-09-18T08:56:26.761Z,19.30
2018-09-18T08:58:56.799Z,19.50
2018-09-18T09:01:25.965Z,19.60
2018-09-18T09:03:55.074Z,19.70
2018-09-18T09:06:24.204Z,19.90
2018-09-18T09:08:53.245Z,20.00
2018-09-18T09:11:22.263Z,20.20
2018-09-18T09:13:51.391Z,20.30
2018-09-18T09:16:20.656Z,20.40
2018-09-18T09:18:49.721Z,20.60
2018-09-18T09:21:21.675Z,20.70
2018-09-18T09:23:50.677Z,20.80
2018-09-18T09:26:19.955Z,20.90
2018-09-18T09:28:48.913Z,20.90
2018-09-18T09:31:17.999Z,21.00
2018-09-18T09:33:47.122Z,21.10
2018-09-18T09:36:16.267Z,21.20
2018-09-18T09:38:45.376Z,21.20
2018-09-18T09:41:14.311Z,21.30
2018-09-18T09:43:43.418Z,21.40
2018-09-18T09:46:12.461Z,21.50
2018-09-18T09:48:41.628Z,21.60
2018-09-18T09:51:11.061Z,21.70
2018-09-18T09:53:40.100Z,21.80
2018-09-18T09:56:09.226Z,21.90
2018-09-18T09:58:38.386Z,22.00
2018-09-18T10:01:12.720Z,22.10
2018-09-18T10:03:41.755Z,22.30
2018-09-18T10:06:10.761Z,22.40
2018-09-18T10:08:39.953Z,22.50
2018-09-18T10:11:09.152Z,22.70
2018-09-18T10:13:39.458Z,22.70
2018-09-18T10:16:08.619Z,22.80
2018-09-18T10:18:37.750Z,22.90
2018-09-18T10:21:07.220Z,23.00
2018-09-18T10:23:36.282Z,23.10
2018-09-18T10:26:05.517Z,23.20
2018-09-18T10:28:34.659Z,23.30
2018-09-18T10:31:04.171Z,23.40
2018-09-18T10:33:33.198Z,23.50
2018-09-18T10:36:03.421Z,23.60
2018-09-18T10:38:32.439Z,23.70
2018-09-18T10:41:01.584Z,23.80
2018-09-18T10:43:30.656Z,23.80
2018-09-18T10:45:59.695Z,24.00
2018-09-18T10:48:28.883Z,24.10
2018-09-18T10:50:58.099Z,24.20
2018-09-18T10:53:30.252Z,24.40
2018-09-18T10:55:59.846Z,24.50
2018-09-18T10:58:28.919Z,24.60
2018-09-18T11:01:00.169Z,24.60
2018-09-18T11:03:30.073Z,24.70
2018-09-18T11:05:59.105Z,24.80
2018-09-18T11:08:28.293Z,24.80
2018-09-18T11:10:58.160Z,24.90
2018-09-18T11:13:27.488Z,25.00
2018-09-18T11:15:56.907Z,25.00
2018-09-18T11:18:26.133Z,25.10
2018-09-18T11:20:55.383Z,25.10
2018-09-18T11:23:25.563Z,25.20
2018-09-18T11:25:54.790Z,25.30
2018-09-18T11:28:24.046Z,25.40
2018-09-18T11:30:52.993Z,25.50
2018-09-18T11:33:22.058Z,25.60
2018-09-18T11:35:51.594Z,25.70
2018-09-18T11:38:20.804Z,25.80
2018-09-18T11:40:50.549Z,25.90
2018-09-18T11:43:19.543Z,26.00
2018-09-18T11:45:49.008Z,26.10
2018-09-18T11:48:18.418Z,26.10
2018-09-18T11:50:47.503Z,26.20
2018-09-18T11:53:16.690Z,26.30
2018-09-18T11:55:45.721Z,26.40
2018-09-18T11:58:14.979Z,26.40
2018-09-18T12:00:44.135Z,26.50
2018-09-18T12:03:13.299Z,26.60
2018-09-18T12:05:43.131Z,26.70
2018-09-18T12:08:12.247Z,26.70
2018-09-18T12:10:41.527Z,26.70
2018-09-18T12:13:10.850Z,26.80
2018-09-18T12:15:40.016Z,26.80
2018-09-18T12:18:09.204Z,26.80
2018-09-18T12:20:38.213Z,26.90
2018-09-18T12:23:07.656Z,27.10
2018-09-18T12:25:36.699Z,27.10
2018-09-18T12:28:06.078Z,27.20
2018-09-18T12:30:35.141Z,27.20
2018-09-18T12:33:04.267Z,27.30
2018-09-18T12:35:34.043Z,27.40
2018-09-18T12:38:03.115Z,27.40
2018-09-18T12:40:32.205Z,27.50
2018-09-18T12:43:01.375Z,27.50
2018-09-18T12:45:30.380Z,27.60
2018-09-18T12:47:59.621Z,27.60
2018-09-18T12:50:28.841Z,27.60
2018-09-18T12:52:57.799Z,27.70
2018-09-18T12:55:27.407Z,27.90
2018-09-18T12:57:56.575Z,28.00
2018-09-18T13:00:25.842Z,28.00
2018-09-18T13:02:54.971Z,28.00
2018-09-18T13:05:24.283Z,28.10
2018-09-18T13:07:54.451Z,28.10
2018-09-18T13:10:23.626Z,28.10
2018-09-18T13:12:52.625Z,28.10
2018-09-18T13:15:21.661Z,28.20
2018-09-18T13:17:51.033Z,28.30
2018-09-18T13:20:20.348Z,28.40
2018-09-18T13:22:49.384Z,28.40
2018-09-18T13:25:18.793Z,28.40
2018-09-18T13:27:48.568Z,28.40
2018-09-18T13:30:18.280Z,28.40
2018-09-18T13:32:48.262Z,28.30
2018-09-18T13:35:17.281Z,28.30
2018-09-18T13:37:46.730Z,28.30
2018-09-18T13:40:16.172Z,28.30
2018-09-18T13:42:45.281Z,28.30
2018-09-18T13:45:14.249Z,28.30
2018-09-18T13:47:43.275Z,28.30
2018-09-18T13:50:12.504Z,28.30
2018-09-18T13:52:41.548Z,28.30
2018-09-18T13:55:10.620Z,28.40
2018-09-18T13:57:39.910Z,28.50
2018-09-18T14:00:09.557Z,28.60
2018-09-18T14:02:38.608Z,28.60
2018-09-18T14:05:07.898Z,28.50
2018-09-18T14:07:37.120Z,28.50
2018-09-18T14:10:07.490Z,28.50
2018-09-18T14:12:36.610Z,28.50
2018-09-18T14:15:05.889Z,28.50
2018-09-18T14:17:34.904Z,28.50
2018-09-18T14:20:04.035Z,28.50
2018-09-18T14:22:32.950Z,28.70
2018-09-18T14:25:02.002Z,28.90
2018-09-18T14:27:31.132Z,28.90
2018-09-18T14:30:00.304Z,28.90
2018-09-18T14:32:29.395Z,28.90
2018-09-18T14:34:59.307Z,28.80
2018-09-18T14:37:28.284Z,28.70
2018-09-18T14:39:57.385Z,28.90
2018-09-18T14:42:26.461Z,28.90
2018-09-18T14:44:55.438Z,28.90
2018-09-18T14:47:24.553Z,28.90
2018-09-18T14:49:53.820Z,29.00
2018-09-18T14:52:23.192Z,29.10
2018-09-18T14:54:52.146Z,29.20
2018-09-18T14:57:21.131Z,29.10
2018-09-18T14:59:50.197Z,29.20
2018-09-18T15:02:19.359Z,29.20
2018-09-18T15:04:48.908Z,29.20
2018-09-18T15:07:18.418Z,29.20
2018-09-18T15:09:47.652Z,29.10
2018-09-18T15:12:16.741Z,29.00
2018-09-18T15:14:45.903Z,29.00
2018-09-18T15:17:14.945Z,29.00
2018-09-18T15:19:43.944Z,29.00
2018-09-18T15:22:13.853Z,28.90
2018-09-18T15:24:43.315Z,28.80
2018-09-18T15:27:12.507Z,28.80
2018-09-18T15:29:42.607Z,28.90
2018-09-18T15:32:12.531Z,28.90
2018-09-18T15:34:41.548Z,28.80
2018-09-18T15:37:11.973Z,28.60
2018-09-18T15:39:41.224Z,28.50
2018-09-18T15:42:10.318Z,28.50
2018-09-18T15:44:39.802Z,28.50
2018-09-18T15:47:09.583Z,28.50
2018-09-18T15:49:38.671Z,28.40
2018-09-18T15:52:09.110Z,28.40
2018-09-18T15:54:38.151Z,28.40
2018-09-18T15:57:07.405Z,28.40
2018-09-18T15:59:37.099Z,28.30
2018-09-18T16:02:06.280Z,28.20
2018-09-18T16:04:35.415Z,28.30
2018-09-18T16:07:04.695Z,28.40
2018-09-18T16:09:33.817Z,28.30
2018-09-18T16:12:02.769Z,28.40
2018-09-18T16:14:31.796Z,28.50
2018-09-18T16:17:28.894Z,28.70
2018-09-18T16:19:58.139Z,28.80
2018-09-18T16:22:27.276Z,29.00
2018-09-18T16:24:56.573Z,29.00
2018-09-18T16:27:25.681Z,29.10
2018-09-18T16:29:55.200Z,29.10
2018-09-18T16:32:24.205Z,29.10
2018-09-18T16:34:53.281Z,28.90
2018-09-18T16:37:22.328Z,28.90
2018-09-18T16:39:51.346Z,28.90
2018-09-18T16:42:21.328Z,29.00
2018-09-18T16:44:50.327Z,28.90
2018-09-18T16:47:19.531Z,28.90
2018-09-18T16:49:48.753Z,28.90
2018-09-18T16:52:17.633Z,28.90
2018-09-18T16:54:46.691Z,28.90
2018-09-18T16:57:15.863Z,28.80
2018-09-18T16:59:45.009Z,28.80
2018-09-18T17:02:14.051Z,28.80
2018-09-18T17:04:43.176Z,28.70
2018-09-18T17:07:12.279Z,28.60
2018-09-18T17:09:41.313Z,28.40
2018-09-18T17:12:10.291Z,28.30
2018-09-18T17:14:39.468Z,28.10
2018-09-18T17:17:08.534Z,28.00
2018-09-18T17:19:37.769Z,27.90
2018-09-18T17:22:06.797Z,27.70
2018-09-18T17:24:36.467Z,27.30
2018-09-18T17:27:05.487Z,26.80
2018-09-18T17:29:35.576Z,26.30
2018-09-18T17:32:05.216Z,25.90
2018-09-18T17:34:34.364Z,25.40
2018-09-18T17:37:03.911Z,25.10
2018-09-18T17:39:33.709Z,24.70
2018-09-18T17:42:02.883Z,24.40
2018-09-18T17:44:31.897Z,24.20
2018-09-18T17:47:01.106Z,24.00
2018-09-18T17:49:30.109Z,23.80
2018-09-18T17:51:59.406Z,23.60
2018-09-18T17:54:29.092Z,23.50
2018-09-18T17:56:59.244Z,23.40
2018-09-18T17:59:30.060Z,23.30
2018-09-18T18:02:00.176Z,23.20
2018-09-18T18:04:29.316Z,22.90
2018-09-18T18:06:58.467Z,22.70
2018-09-18T18:09:28.676Z,22.60
2018-09-18T18:11:57.754Z,22.40
2018-09-18T18:14:27.095Z,22.40
2018-09-18T18:16:56.241Z,22.20
2018-09-18T18:19:25.283Z,22.10
2018-09-18T18:21:54.439Z,22.00
2018-09-18T18:24:23.688Z,21.90
2018-09-18T18:26:52.728Z,21.80
2018-09-18T18:29:21.936Z,21.60
2018-09-18T18:31:51.057Z,21.50
2018-09-18T18:34:20.076Z,21.30
2018-09-18T18:36:49.025Z,21.20
2018-09-18T18:39:18.076Z,21.10
2018-09-18T18:41:47.739Z,21.00
2018-09-18T18:44:16.813Z,21.00
2018-09-18T18:46:45.829Z,20.90
2018-09-18T18:49:15.045Z,20.80
2018-09-18T18:51:44.144Z,20.70
2018-09-18T18:54:13.245Z,20.60
2018-09-18T18:56:42.402Z,20.60
2018-09-18T18:59:11.433Z,20.50
2018-09-18T19:01:40.452Z,20.40
2018-09-18T19:04:09.542Z,20.40
2018-09-18T19:06:38.655Z,20.30
2018-09-18T19:09:08.047Z,20.30
2018-09-18T19:11:37.141Z,20.20
2018-09-18T19:14:06.251Z,20.20
2018-09-18T19:16:36.185Z,20.10
2018-09-18T19:19:05.239Z,20.10
2018-09-18T19:21:34.361Z,20.10
2018-09-18T19:24:03.393Z,20.10
2018-09-18T19:26:32.489Z,20.00
2018-09-18T19:29:01.558Z,20.00
2018-09-18T19:31:30.815Z,20.00
2018-09-18T19:33:59.950Z,19.90
2018-09-18T19:36:31.513Z,19.90
2018-09-18T19:39:00.624Z,19.80
2018-09-18T19:41:29.706Z,19.70
2018-09-18T19:43:58.779Z,19.70
2018-09-18T19:46:27.818Z,19.70
2018-09-18T19:48:56.834Z,19.60
2018-09-18T19:51:25.819Z,19.60
2018-09-18T19:53:54.943Z,19.60
2018-09-18T19:56:23.930Z,19.50
2018-09-18T19:58:52.981Z,19.50
2018-09-18T20:01:22.026Z,19.50
2018-09-18T20:03:51.227Z,19.40
2018-09-18T20:06:20.356Z,19.30
2018-09-18T20:08:49.480Z,19.30
2018-09-18T20:11:18.571Z,19.20
2018-09-18T20:13:47.655Z,19.20
2018-09-18T20:16:16.882Z,19.20
2018-09-18T20:18:45.936Z,19.10
2018-09-18T20:21:15.776Z,19.00
2018-09-18T20:23:46.258Z,19.00
2018-09-18T20:26:15.303Z,18.90
2018-09-18T20:28:44.495Z,18.90
2018-09-18T20:31:14.492Z,18.90
2018-09-18T20:33:44.185Z,18.90
2018-09-18T20:36:13.518Z,18.80
2018-09-18T20:38:42.623Z,18.80
2018-09-18T20:41:11.678Z,18.70
2018-09-18T20:43:40.678Z,18.70
2018-09-18T20:46:09.735Z,18.70
2018-09-18T20:48:38.931Z,18.60
2018-09-18T20:51:07.868Z,18.60
2018-09-18T20:53:37.050Z,18.60
2018-09-18T20:56:06.107Z,18.50
2018-09-18T20:58:35.166Z,18.50
2018-09-18T21:01:05.535Z,18.50
2018-09-18T21:03:34.588Z,18.50
2018-09-18T21:06:03.698Z,18.40
2018-09-18T21:08:32.835Z,18.40
2018-09-18T21:11:01.993Z,18.40
2018-09-18T21:13:31.015Z,18.40
2018-09-18T21:16:00.182Z,18.30
2018-09-18T21:18:31.006Z,18.30
2018-09-18T21:21:00.190Z,18.30
2018-09-18T21:23:29.692Z,18.30
2018-09-18T21:26:01.327Z,18.20
2018-09-18T21:28:30.216Z,18.20
2018-09-18T21:30:59.246Z,18.20
2018-09-18T21:33:28.436Z,18.20
2018-09-18T21:35:57.394Z,18.20
2018-09-18T21:38:26.450Z,18.10
2018-09-18T21:40:55.602Z,18.10
2018-09-18T21:43:24.819Z,18.10
2018-09-18T21:45:54.021Z,18.10
2018-09-18T21:48:22.900Z,18.00
2018-09-18T21:50:52.192Z,18.00
2018-09-18T21:53:21.352Z,18.00
2018-09-18T21:55:50.377Z,17.90
2018-09-18T21:58:19.437Z,17.90
2018-09-18T22:00:48.514Z,17.80
2018-09-18T22:03:17.560Z,17.80
2018-09-18T22:05:47.066Z,17.80
2018-09-18T22:08:16.223Z,17.80
2018-09-18T22:10:45.301Z,17.70
2018-09-18T22:13:14.871Z,17.70
2018-09-18T22:15:44.162Z,17.70
2018-09-18T22:18:13.222Z,17.70
2018-09-18T22:20:43.812Z,17.60
2018-09-18T22:23:12.938Z,17.60
2018-09-18T22:25:43.138Z,17.50
2018-09-18T22:28:12.311Z,17.50
2018-09-18T22:30:41.373Z,17.40
2018-09-18T22:33:10.409Z,17.40
2018-09-18T22:35:39.527Z,17.40
2018-09-18T22:38:08.696Z,17.40
2018-09-18T22:40:38.030Z,17.30
2018-09-18T22:43:07.090Z,17.30
2018-09-18T22:45:36.347Z,17.20
2018-09-18T22:48:05.409Z,17.10
2018-09-18T22:50:34.531Z,17.20
2018-09-18T22:53:03.634Z,17.10
2018-09-18T22:55:32.698Z,17.00
2018-09-18T22:58:01.792Z,16.90
2018-09-18T23:00:31.457Z,17.10
2018-09-18T23:03:00.552Z,17.20
2018-09-18T23:05:29.825Z,17.40
2018-09-18T23:07:58.819Z,17.40
2018-09-18T23:10:28.746Z,17.50
2018-09-18T23:12:57.800Z,17.70
2018-09-18T23:15:26.959Z,17.70
2018-09-18T23:17:55.996Z,17.80
2018-09-18T23:20:25.036Z,17.80
2018-09-18T23:22:54.088Z,17.80
2018-09-18T23:25:23.092Z,17.80
2018-09-18T23:27:52.710Z,17.80
2018-09-18T23:30:21.747Z,17.80
2018-09-18T23:32:50.932Z,17.70
2018-09-18T23:35:20.014Z,17.70
2018-09-18T23:37:49.064Z,17.60
2018-09-18T23:40:18.158Z,17.60
2018-09-18T23:42:47.241Z,17.60
2018-09-18T23:45:16.467Z,17.50
2018-09-18T23:47:45.544Z,17.50
2018-09-18T23:50:14.702Z,17.50
2018-09-18T23:52:44.720Z,17.50
2018-09-18T23:55:13.901Z,17.60
2018-09-18T23:57:42.935Z,17.60
